CYBB

Pelly Bay Airport

Pelly Bay, Canada
METAR CYBB 212300Z 02013KT 15SM FEW014 BKN200 M02/M04 A2992 RMK SF2CS4 -1.5/-3.6/0.0/LAST STFD OBS/NXT 221500Z SLP136
Observed Flight Rules
Sep-21 @ 23:00 UTC (9 hours ago) Visual Flight Rules
Wind Visibility Clouds
20° at 13 knots 15 miles
Temperatures Readings
Current -2°C / 28°F
Dewpoint -4°C / 25°F
Humidity 86%
Altimeter 29.92" Hg
Pressure 1013.6 hPa
Elevation 15
METAR CYBB 212300Z 02013KT 15SM FEW014 BKN200 M02/M04 A2992 RMK SF2CS4 -1.5/-3.6/0.0/LAST STFD OBS/NXT 221500Z SLP136
Observed Flight Rules
Sep-21 @ 23:00 UTC
(9 hours ago)
VFR
Wind Visibility
20° at 13 knots 15 miles
Clouds
Temperature Dewpoint
-2°C / 28°F -4°C / 25°F
Humidity Altimeter Pressure
86% 29.92" Hg 1013.6 hPa